sensor_id;sensor_type;location;lat;lon;timestamp;P1;durP1;ratioP1;P2;durP2;ratioP2
64686;SDS011;51113;53.646;-113.674;2023-04-29T00:02:20;11.05;;;1.55;;
64686;SDS011;51113;53.646;-113.674;2023-04-29T00:04:49;4.75;;;1.17;;
64686;SDS011;51113;53.646;-113.674;2023-04-29T00:07:18;6.95;;;0.98;;
64686;SDS011;51113;53.646;-113.674;2023-04-29T00:09:47;2.55;;;0.93;;
64686;SDS011;51113;53.646;-113.674;2023-04-29T00:12:16;5.25;;;1.02;;
64686;SDS011;51113;53.646;-113.674;2023-04-29T00:14:44;8.13;;;1.00;;
64686;SDS011;51113;53.646;-113.674;2023-04-29T00:17:13;7.03;;;1.05;;
64686;SDS011;51113;53.646;-113.674;2023-04-29T00:19:42;6.82;;;0.98;;
64686;SDS011;51113;53.646;-113.674;2023-04-29T00:22:11;15.77;;;1.20;;
64686;SDS011;51113;53.646;-113.674;2023-04-29T00:24:40;9.02;;;1.00;;
64686;SDS011;51113;53.646;-113.674;2023-04-29T00:27:08;6.40;;;1.10;;
64686;SDS011;51113;53.646;-113.674;2023-04-29T00:29:38;4.65;;;1.00;;
64686;SDS011;51113;53.646;-113.674;2023-04-29T00:32:07;3.75;;;1.10;;
64686;SDS011;51113;53.646;-113.674;2023-04-29T00:34:35;6.43;;;1.20;;
64686;SDS011;51113;53.646;-113.674;2023-04-29T00:37:04;3.75;;;1.02;;
64686;SDS011;51113;53.646;-113.674;2023-04-29T00:39:33;4.43;;;1.20;;
64686;SDS011;51113;53.646;-113.674;2023-04-29T00:42:01;4.43;;;1.00;;
64686;SDS011;51113;53.646;-113.674;2023-04-29T00:44:31;5.45;;;1.10;;
64686;SDS011;51113;53.646;-113.674;2023-04-29T00:46:59;3.05;;;0.95;;
64686;SDS011;51113;53.646;-113.674;2023-04-29T00:49:28;4.93;;;1.10;;
64686;SDS011;51113;53.646;-113.674;2023-04-29T00:51:56;6.18;;;1.33;;
64686;SDS011;51113;53.646;-113.674;2023-04-29T00:54:26;6.32;;;1.52;;
64686;SDS011;51113;53.646;-113.674;2023-04-29T00:56:55;1.15;;;0.90;;
64686;SDS011;51113;53.646;-113.674;2023-04-29T00:59:26;5.45;;;0.90;;
64686;SDS011;51113;53.646;-113.674;2023-04-29T01:04:30;4.15;;;1.10;;
64686;SDS011;51113;53.646;-113.674;2023-04-29T01:09:38;5.80;;;0.90;;
64686;SDS011;51113;53.646;-113.674;2023-04-29T01:12:20;7.50;;;1.17;;
64686;SDS011;51113;53.646;-113.674;2023-04-29T01:17:50;6.03;;;1.08;;
64686;SDS011;51113;53.646;-113.674;2023-04-29T01:20:27;4.63;;;0.90;;
64686;SDS011;51113;53.646;-113.674;2023-04-29T01:22:57;3.28;;;1.02;;
64686;SDS011;51113;53.646;-113.674;2023-04-29T01:25:26;10.60;;;1.10;;
64686;SDS011;51113;53.646;-113.674;2023-04-29T01:28:18;2.92;;;1.00;;
64686;SDS011;51113;53.646;-113.674;2023-04-29T01:33:47;7.93;;;0.98;;
64686;SDS011;51113;53.646;-113.674;2023-04-29T01:36:43;7.68;;;1.10;;
64686;SDS011;51113;53.646;-113.674;2023-04-29T01:42:04;3.45;;;0.90;;
64686;SDS011;51113;53.646;-113.674;2023-04-29T01:44:40;3.20;;;0.82;;
64686;SDS011;51113;53.646;-113.674;2023-04-29T01:47:12;1.52;;;0.65;;
64686;SDS011;51113;53.646;-113.674;2023-04-29T01:49:42;5.23;;;0.90;;
64686;SDS011;51113;53.646;-113.674;2023-04-29T01:52:13;5.88;;;1.20;;
64686;SDS011;51113;53.646;-113.674;2023-04-29T01:54:42;1.30;;;0.70;;
64686;SDS011;51113;53.646;-113.674;2023-04-29T01:57:12;7.03;;;1.30;;
64686;SDS011;51113;53.646;-113.674;2023-04-29T01:59:41;3.65;;;0.80;;
64686;SDS011;51113;53.646;-113.674;2023-04-29T02:02:09;7.30;;;0.70;;
64686;SDS011;51113;53.646;-113.674;2023-04-29T02:04:38;3.20;;;0.80;;
64686;SDS011;51113;53.646;-113.674;2023-04-29T02:07:07;3.45;;;0.90;;
64686;SDS011;51113;53.646;-113.674;2023-04-29T02:09:35;2.03;;;1.00;;
64686;SDS011;51113;53.646;-113.674;2023-04-29T02:12:04;2.92;;;1.00;;
64686;SDS011;51113;53.646;-113.674;2023-04-29T02:14:33;7.05;;;1.13;;
64686;SDS011;51113;53.646;-113.674;2023-04-29T02:17:03;1.95;;;0.80;;
64686;SDS011;51113;53.646;-113.674;2023-04-29T02:19:32;7.68;;;0.90;;
64686;SDS011;51113;53.646;-113.674;2023-04-29T02:22:00;5.05;;;1.00;;
64686;SDS011;51113;53.646;-113.674;2023-04-29T02:24:29;2.63;;;1.25;;
64686;SDS011;51113;53.646;-113.674;2023-04-29T02:26:57;4.65;;;1.00;;
64686;SDS011;51113;53.646;-113.674;2023-04-29T02:29:26;3.17;;;1.10;;
64686;SDS011;51113;53.646;-113.674;2023-04-29T02:31:56;8.05;;;1.20;;
64686;SDS011;51113;53.646;-113.674;2023-04-29T02:34:25;9.52;;;1.23;;
64686;SDS011;51113;53.646;-113.674;2023-04-29T02:36:54;8.35;;;1.00;;
64686;SDS011;51113;53.646;-113.674;2023-04-29T02:39:22;5.50;;;1.23;;
64686;SDS011;51113;53.646;-113.674;2023-04-29T02:41:53;6.97;;;1.10;;
64686;SDS011;51113;53.646;-113.674;2023-04-29T02:44:23;4.75;;;1.10;;
64686;SDS011;51113;53.646;-113.674;2023-04-29T02:46:51;3.70;;;1.25;;
64686;SDS011;51113;53.646;-113.674;2023-04-29T02:49:20;4.32;;;1.20;;
64686;SDS011;51113;53.646;-113.674;2023-04-29T02:51:48;10.57;;;1.00;;
64686;SDS011;51113;53.646;-113.674;2023-04-29T02:54:17;5.47;;;1.00;;
64686;SDS011;51113;53.646;-113.674;2023-04-29T02:56:46;7.15;;;1.10;;
64686;SDS011;51113;53.646;-113.674;2023-04-29T02:59:15;16.02;;;1.70;;
64686;SDS011;51113;53.646;-113.674;2023-04-29T03:01:43;11.65;;;1.50;;
64686;SDS011;51113;53.646;-113.674;2023-04-29T03:04:11;8.43;;;1.33;;
64686;SDS011;51113;53.646;-113.674;2023-04-29T03:06:40;10.05;;;1.60;;
64686;SDS011;51113;53.646;-113.674;2023-04-29T03:09:10;10.45;;;1.30;;
64686;SDS011;51113;53.646;-113.674;2023-04-29T03:11:39;7.38;;;1.40;;
64686;SDS011;51113;53.646;-113.674;2023-04-29T03:14:08;6.28;;;1.45;;
64686;SDS011;51113;53.646;-113.674;2023-04-29T03:16:37;13.30;;;1.50;;
64686;SDS011;51113;53.646;-113.674;2023-04-29T03:19:06;11.38;;;1.20;;
64686;SDS011;51113;53.646;-113.674;2023-04-29T03:21:35;8.90;;;1.20;;
64686;SDS011;51113;53.646;-113.674;2023-04-29T03:24:04;10.52;;;1.40;;
64686;SDS011;51113;53.646;-113.674;2023-04-29T03:26:33;9.77;;;1.50;;
64686;SDS011;51113;53.646;-113.674;2023-04-29T03:29:02;16.50;;;1.30;;
64686;SDS011;51113;53.646;-113.674;2023-04-29T03:31:30;9.27;;;1.15;;
64686;SDS011;51113;53.646;-113.674;2023-04-29T03:34:01;14.68;;;1.40;;
64686;SDS011;51113;53.646;-113.674;2023-04-29T03:36:29;10.32;;;1.55;;
64686;SDS011;51113;53.646;-113.674;2023-04-29T03:38:58;24.25;;;1.60;;
64686;SDS011;51113;53.646;-113.674;2023-04-29T03:41:26;18.60;;;1.40;;
64686;SDS011;51113;53.646;-113.674;2023-04-29T03:43:56;12.20;;;1.50;;
64686;SDS011;51113;53.646;-113.674;2023-04-29T03:46:27;11.13;;;1.50;;
64686;SDS011;51113;53.646;-113.674;2023-04-29T03:48:56;7.88;;;1.30;;
64686;SDS011;51113;53.646;-113.674;2023-04-29T03:51:24;11.48;;;1.33;;
64686;SDS011;51113;53.646;-113.674;2023-04-29T03:53:54;10.30;;;1.02;;
64686;SDS011;51113;53.646;-113.674;2023-04-29T03:56:25;3.78;;;1.02;;
64686;SDS011;51113;53.646;-113.674;2023-04-29T03:58:54;7.78;;;1.00;;
64686;SDS011;51113;53.646;-113.674;2023-04-29T04:01:23;8.00;;;1.42;;
64686;SDS011;51113;53.646;-113.674;2023-04-29T04:03:52;11.60;;;1.42;;
64686;SDS011;51113;53.646;-113.674;2023-04-29T04:06:20;6.10;;;1.25;;
64686;SDS011;51113;53.646;-113.674;2023-04-29T04:08:48;13.45;;;1.08;;
64686;SDS011;51113;53.646;-113.674;2023-04-29T04:11:17;9.13;;;1.45;;
64686;SDS011;51113;53.646;-113.674;2023-04-29T04:13:45;14.15;;;1.55;;
64686;SDS011;51113;53.646;-113.674;2023-04-29T04:16:14;15.02;;;1.40;;
64686;SDS011;51113;53.646;-113.674;2023-04-29T04:18:42;6.93;;;1.02;;
64686;SDS011;51113;53.646;-113.674;2023-04-29T04:21:11;4.45;;;0.90;;
64686;SDS011;51113;53.646;-113.674;2023-04-29T04:23:40;10.32;;;1.15;;
64686;SDS011;51113;53.646;-113.674;2023-04-29T04:26:09;3.00;;;1.00;;
64686;SDS011;51113;53.646;-113.674;2023-04-29T04:28:37;5.45;;;1.00;;
64686;SDS011;51113;53.646;-113.674;2023-04-29T04:31:05;2.72;;;0.95;;
64686;SDS011;51113;53.646;-113.674;2023-04-29T04:33:34;6.68;;;1.20;;
64686;SDS011;51113;53.646;-113.674;2023-04-29T04:36:02;7.45;;;0.90;;
64686;SDS011;51113;53.646;-113.674;2023-04-29T04:38:31;6.20;;;1.17;;
64686;SDS011;51113;53.646;-113.674;2023-04-29T04:41:00;6.88;;;1.00;;
64686;SDS011;51113;53.646;-113.674;2023-04-29T04:43:29;1.65;;;0.88;;
64686;SDS011;51113;53.646;-113.674;2023-04-29T04:45:58;5.22;;;1.00;;
64686;SDS011;51113;53.646;-113.674;2023-04-29T04:48:26;7.57;;;1.05;;
64686;SDS011;51113;53.646;-113.674;2023-04-29T04:50:55;8.88;;;1.20;;
64686;SDS011;51113;53.646;-113.674;2023-04-29T04:53:24;5.35;;;1.00;;
64686;SDS011;51113;53.646;-113.674;2023-04-29T04:55:53;5.53;;;0.90;;
64686;SDS011;51113;53.646;-113.674;2023-04-29T04:58:22;3.80;;;0.80;;
64686;SDS011;51113;53.646;-113.674;2023-04-29T05:00:50;3.60;;;0.80;;
64686;SDS011;51113;53.646;-113.674;2023-04-29T05:03:20;3.72;;;0.88;;
64686;SDS011;51113;53.646;-113.674;2023-04-29T05:05:56;3.53;;;0.90;;
64686;SDS011;51113;53.646;-113.674;2023-04-29T05:08:25;2.60;;;0.73;;
64686;SDS011;51113;53.646;-113.674;2023-04-29T05:10:54;1.58;;;0.93;;
64686;SDS011;51113;53.646;-113.674;2023-04-29T05:13:24;6.50;;;1.30;;
64686;SDS011;51113;53.646;-113.674;2023-04-29T05:15:54;6.70;;;0.90;;
64686;SDS011;51113;53.646;-113.674;2023-04-29T05:18:23;2.95;;;0.90;;
64686;SDS011;51113;53.646;-113.674;2023-04-29T05:20:51;2.38;;;0.98;;
64686;SDS011;51113;53.646;-113.674;2023-04-29T05:23:20;2.22;;;0.82;;
64686;SDS011;51113;53.646;-113.674;2023-04-29T05:25:49;3.90;;;1.10;;
64686;SDS011;51113;53.646;-113.674;2023-04-29T05:28:18;3.33;;;1.00;;
64686;SDS011;51113;53.646;-113.674;2023-04-29T05:30:49;2.33;;;1.10;;
64686;SDS011;51113;53.646;-113.674;2023-04-29T05:33:18;4.85;;;1.13;;
64686;SDS011;51113;53.646;-113.674;2023-04-29T05:35:47;4.88;;;1.10;;
64686;SDS011;51113;53.646;-113.674;2023-04-29T05:38:15;4.40;;;1.08;;
64686;SDS011;51113;53.646;-113.674;2023-04-29T05:40:43;1.80;;;1.10;;
64686;SDS011;51113;53.646;-113.674;2023-04-29T05:43:12;4.57;;;1.20;;
64686;SDS011;51113;53.646;-113.674;2023-04-29T05:45:41;2.45;;;1.20;;
64686;SDS011;51113;53.646;-113.674;2023-04-29T05:48:13;4.07;;;1.27;;
64686;SDS011;51113;53.646;-113.674;2023-04-29T05:50:42;4.53;;;1.25;;
64686;SDS011;51113;53.646;-113.674;2023-04-29T05:53:11;4.55;;;1.25;;
64686;SDS011;51113;53.646;-113.674;2023-04-29T05:55:39;6.88;;;1.20;;
64686;SDS011;51113;53.646;-113.674;2023-04-29T05:58:11;3.05;;;1.50;;
64686;SDS011;51113;53.646;-113.674;2023-04-29T06:00:41;6.45;;;1.55;;
64686;SDS011;51113;53.646;-113.674;2023-04-29T06:03:10;1.70;;;1.20;;
64686;SDS011;51113;53.646;-113.674;2023-04-29T06:05:39;3.53;;;1.10;;
64686;SDS011;51113;53.646;-113.674;2023-04-29T06:08:09;2.95;;;1.48;;
64686;SDS011;51113;53.646;-113.674;2023-04-29T06:10:38;7.75;;;1.40;;
64686;SDS011;51113;53.646;-113.674;2023-04-29T06:13:06;9.88;;;1.63;;
64686;SDS011;51113;53.646;-113.674;2023-04-29T06:15:35;7.43;;;1.40;;
64686;SDS011;51113;53.646;-113.674;2023-04-29T06:18:04;3.20;;;1.30;;
64686;SDS011;51113;53.646;-113.674;2023-04-29T06:20:33;8.10;;;1.40;;
64686;SDS011;51113;53.646;-113.674;2023-04-29T06:23:03;5.22;;;1.50;;
64686;SDS011;51113;53.646;-113.674;2023-04-29T06:25:31;3.65;;;1.60;;
64686;SDS011;51113;53.646;-113.674;2023-04-29T06:28:00;6.05;;;1.75;;
64686;SDS011;51113;53.646;-113.674;2023-04-29T06:30:31;5.60;;;1.60;;
64686;SDS011;51113;53.646;-113.674;2023-04-29T06:32:59;4.57;;;1.48;;
64686;SDS011;51113;53.646;-113.674;2023-04-29T06:35:28;9.95;;;1.58;;
64686;SDS011;51113;53.646;-113.674;2023-04-29T06:37:57;4.30;;;1.40;;
64686;SDS011;51113;53.646;-113.674;2023-04-29T06:40:25;6.18;;;1.50;;
64686;SDS011;51113;53.646;-113.674;2023-04-29T06:42:54;5.72;;;1.45;;
64686;SDS011;51113;53.646;-113.674;2023-04-29T06:45:23;11.43;;;2.00;;
64686;SDS011;51113;53.646;-113.674;2023-04-29T06:47:51;3.78;;;1.30;;
64686;SDS011;51113;53.646;-113.674;2023-04-29T06:50:21;7.63;;;1.55;;
64686;SDS011;51113;53.646;-113.674;2023-04-29T06:52:49;6.72;;;2.08;;
64686;SDS011;51113;53.646;-113.674;2023-04-29T06:55:18;2.88;;;1.50;;
64686;SDS011;51113;53.646;-113.674;2023-04-29T06:57:47;6.10;;;1.50;;
64686;SDS011;51113;53.646;-113.674;2023-04-29T07:00:17;3.65;;;1.67;;
64686;SDS011;51113;53.646;-113.674;2023-04-29T07:02:47;4.95;;;1.58;;
64686;SDS011;51113;53.646;-113.674;2023-04-29T07:05:16;4.80;;;1.52;;
64686;SDS011;51113;53.646;-113.674;2023-04-29T07:07:46;6.68;;;1.40;;
64686;SDS011;51113;53.646;-113.674;2023-04-29T07:10:15;6.30;;;1.30;;
64686;SDS011;51113;53.646;-113.674;2023-04-29T07:12:44;6.50;;;1.33;;
64686;SDS011;51113;53.646;-113.674;2023-04-29T07:15:13;6.38;;;1.75;;
64686;SDS011;51113;53.646;-113.674;2023-04-29T07:17:41;13.68;;;3.05;;
64686;SDS011;51113;53.646;-113.674;2023-04-29T07:20:10;11.52;;;4.10;;
64686;SDS011;51113;53.646;-113.674;2023-04-29T07:22:39;12.02;;;4.25;;
64686;SDS011;51113;53.646;-113.674;2023-04-29T07:25:07;15.00;;;5.82;;
64686;SDS011;51113;53.646;-113.674;2023-04-29T07:27:37;15.00;;;5.82;;
64686;SDS011;51113;53.646;-113.674;2023-04-29T07:30:06;22.35;;;5.75;;
64686;SDS011;51113;53.646;-113.674;2023-04-29T07:32:36;11.80;;;5.20;;
64686;SDS011;51113;53.646;-113.674;2023-04-29T07:35:04;13.52;;;4.22;;
64686;SDS011;51113;53.646;-113.674;2023-04-29T07:37:33;7.45;;;3.95;;
64686;SDS011;51113;53.646;-113.674;2023-04-29T07:40:04;9.93;;;4.03;;
64686;SDS011;51113;53.646;-113.674;2023-04-29T07:42:33;14.90;;;3.28;;
64686;SDS011;51113;53.646;-113.674;2023-04-29T07:45:02;6.43;;;3.65;;
64686;SDS011;51113;53.646;-113.674;2023-04-29T07:47:31;5.25;;;1.95;;
64686;SDS011;51113;53.646;-113.674;2023-04-29T07:49:59;4.88;;;1.92;;
64686;SDS011;51113;53.646;-113.674;2023-04-29T07:52:28;7.55;;;1.95;;
64686;SDS011;51113;53.646;-113.674;2023-04-29T07:54:56;7.50;;;1.90;;
64686;SDS011;51113;53.646;-113.674;2023-04-29T07:57:25;11.90;;;1.85;;
64686;SDS011;51113;53.646;-113.674;2023-04-29T07:59:54;5.97;;;1.40;;
64686;SDS011;51113;53.646;-113.674;2023-04-29T08:02:23;5.07;;;1.40;;
64686;SDS011;51113;53.646;-113.674;2023-04-29T08:04:52;4.13;;;1.30;;
64686;SDS011;51113;53.646;-113.674;2023-04-29T08:07:23;7.32;;;1.42;;
64686;SDS011;51113;53.646;-113.674;2023-04-29T08:09:51;20.27;;;1.83;;
64686;SDS011;51113;53.646;-113.674;2023-04-29T08:12:20;11.73;;;1.70;;
64686;SDS011;51113;53.646;-113.674;2023-04-29T08:14:49;9.15;;;1.77;;
64686;SDS011;51113;53.646;-113.674;2023-04-29T08:17:18;6.72;;;1.38;;
64686;SDS011;51113;53.646;-113.674;2023-04-29T08:19:47;11.65;;;2.08;;
64686;SDS011;51113;53.646;-113.674;2023-04-29T08:22:16;6.10;;;1.38;;
64686;SDS011;51113;53.646;-113.674;2023-04-29T08:24:45;11.55;;;1.73;;
64686;SDS011;51113;53.646;-113.674;2023-04-29T08:27:13;13.70;;;1.60;;
64686;SDS011;51113;53.646;-113.674;2023-04-29T08:29:42;13.85;;;1.95;;
64686;SDS011;51113;53.646;-113.674;2023-04-29T08:32:10;18.90;;;2.67;;
64686;SDS011;51113;53.646;-113.674;2023-04-29T08:34:39;11.07;;;1.60;;
64686;SDS011;51113;53.646;-113.674;2023-04-29T08:37:08;10.23;;;1.60;;
64686;SDS011;51113;53.646;-113.674;2023-04-29T08:39:37;14.75;;;2.33;;
64686;SDS011;51113;53.646;-113.674;2023-04-29T08:42:08;14.27;;;2.15;;
64686;SDS011;51113;53.646;-113.674;2023-04-29T08:44:37;14.40;;;1.80;;
64686;SDS011;51113;53.646;-113.674;2023-04-29T08:47:07;11.45;;;1.58;;
64686;SDS011;51113;53.646;-113.674;2023-04-29T08:49:36;11.55;;;1.75;;
64686;SDS011;51113;53.646;-113.674;2023-04-29T08:52:05;8.65;;;1.63;;
64686;SDS011;51113;53.646;-113.674;2023-04-29T08:54:34;9.45;;;1.48;;
64686;SDS011;51113;53.646;-113.674;2023-04-29T08:57:02;8.80;;;1.65;;
64686;SDS011;51113;53.646;-113.674;2023-04-29T08:59:35;8.75;;;1.58;;
64686;SDS011;51113;53.646;-113.674;2023-04-29T09:02:05;9.18;;;1.70;;
64686;SDS011;51113;53.646;-113.674;2023-04-29T09:07:16;10.75;;;1.73;;
64686;SDS011;51113;53.646;-113.674;2023-04-29T09:09:45;13.95;;;1.70;;
64686;SDS011;51113;53.646;-113.674;2023-04-29T09:12:15;11.68;;;2.20;;
64686;SDS011;51113;53.646;-113.674;2023-04-29T09:14:45;10.68;;;1.70;;
64686;SDS011;51113;53.646;-113.674;2023-04-29T09:17:14;7.78;;;1.83;;
64686;SDS011;51113;53.646;-113.674;2023-04-29T09:19:43;8.90;;;2.10;;
64686;SDS011;51113;53.646;-113.674;2023-04-29T09:22:12;12.73;;;2.30;;
64686;SDS011;51113;53.646;-113.674;2023-04-29T09:24:40;8.10;;;1.60;;
64686;SDS011;51113;53.646;-113.674;2023-04-29T09:27:10;7.32;;;1.70;;
64686;SDS011;51113;53.646;-113.674;2023-04-29T09:30:03;5.28;;;1.52;;
64686;SDS011;51113;53.646;-113.674;2023-04-29T09:32:32;10.45;;;1.75;;
64686;SDS011;51113;53.646;-113.674;2023-04-29T09:38:11;4.80;;;1.57;;
64686;SDS011;51113;53.646;-113.674;2023-04-29T09:40:41;4.43;;;1.70;;
64686;SDS011;51113;53.646;-113.674;2023-04-29T09:43:24;8.57;;;1.70;;
64686;SDS011;51113;53.646;-113.674;2023-04-29T09:45:55;6.07;;;2.10;;
64686;SDS011;51113;53.646;-113.674;2023-04-29T09:48:23;8.02;;;1.88;;
64686;SDS011;51113;53.646;-113.674;2023-04-29T09:51:00;8.13;;;1.70;;
64686;SDS011;51113;53.646;-113.674;2023-04-29T09:53:30;12.40;;;1.95;;
64686;SDS011;51113;53.646;-113.674;2023-04-29T09:58:29;7.28;;;2.00;;
64686;SDS011;51113;53.646;-113.674;2023-04-29T10:01:03;13.93;;;2.00;;
64686;SDS011;51113;53.646;-113.674;2023-04-29T10:03:34;6.78;;;1.85;;
64686;SDS011;51113;53.646;-113.674;2023-04-29T10:06:05;10.02;;;1.75;;
64686;SDS011;51113;53.646;-113.674;2023-04-29T10:08:34;6.45;;;1.80;;
64686;SDS011;51113;53.646;-113.674;2023-04-29T10:11:03;13.13;;;1.85;;
64686;SDS011;51113;53.646;-113.674;2023-04-29T10:13:33;7.50;;;2.10;;
64686;SDS011;51113;53.646;-113.674;2023-04-29T10:16:10;8.45;;;1.88;;
64686;SDS011;51113;53.646;-113.674;2023-04-29T10:18:47;27.10;;;2.25;;
64686;SDS011;51113;53.646;-113.674;2023-04-29T10:21:20;11.55;;;2.50;;
64686;SDS011;51113;53.646;-113.674;2023-04-29T10:23:59;12.13;;;2.20;;
64686;SDS011;51113;53.646;-113.674;2023-04-29T10:26:30;13.65;;;2.05;;
64686;SDS011;51113;53.646;-113.674;2023-04-29T10:29:00;9.57;;;1.95;;
64686;SDS011;51113;53.646;-113.674;2023-04-29T10:31:32;14.30;;;2.05;;
64686;SDS011;51113;53.646;-113.674;2023-04-29T10:34:02;9.27;;;2.25;;
64686;SDS011;51113;53.646;-113.674;2023-04-29T10:36:30;10.82;;;2.08;;
64686;SDS011;51113;53.646;-113.674;2023-04-29T10:39:02;7.00;;;1.52;;
64686;SDS011;51113;53.646;-113.674;2023-04-29T10:41:36;6.70;;;1.60;;
64686;SDS011;51113;53.646;-113.674;2023-04-29T10:44:12;8.38;;;1.77;;
64686;SDS011;51113;53.646;-113.674;2023-04-29T10:46:41;7.18;;;1.80;;
64686;SDS011;51113;53.646;-113.674;2023-04-29T10:49:10;5.45;;;1.50;;
64686;SDS011;51113;53.646;-113.674;2023-04-29T10:51:39;5.80;;;1.67;;
64686;SDS011;51113;53.646;-113.674;2023-04-29T10:54:12;12.70;;;1.63;;
64686;SDS011;51113;53.646;-113.674;2023-04-29T10:56:47;10.75;;;1.58;;
64686;SDS011;51113;53.646;-113.674;2023-04-29T10:59:21;8.82;;;1.60;;
64686;SDS011;51113;53.646;-113.674;2023-04-29T11:02:09;8.73;;;1.52;;
64686;SDS011;51113;53.646;-113.674;2023-04-29T11:05:05;8.10;;;1.30;;
64686;SDS011;51113;53.646;-113.674;2023-04-29T11:07:36;3.45;;;1.10;;
64686;SDS011;51113;53.646;-113.674;2023-04-29T11:10:05;3.97;;;1.27;;
64686;SDS011;51113;53.646;-113.674;2023-04-29T11:12:34;3.60;;;1.25;;
64686;SDS011;51113;53.646;-113.674;2023-04-29T11:15:03;5.00;;;1.10;;
64686;SDS011;51113;53.646;-113.674;2023-04-29T11:17:37;8.45;;;1.30;;
64686;SDS011;51113;53.646;-113.674;2023-04-29T11:20:13;4.53;;;1.27;;
64686;SDS011;51113;53.646;-113.674;2023-04-29T11:22:42;12.57;;;1.45;;
64686;SDS011;51113;53.646;-113.674;2023-04-29T11:25:18;4.28;;;1.10;;
64686;SDS011;51113;53.646;-113.674;2023-04-29T11:27:47;5.28;;;1.10;;
64686;SDS011;51113;53.646;-113.674;2023-04-29T11:30:18;4.38;;;1.05;;
64686;SDS011;51113;53.646;-113.674;2023-04-29T11:32:47;4.88;;;1.02;;
64686;SDS011;51113;53.646;-113.674;2023-04-29T11:35:19;2.25;;;0.85;;
64686;SDS011;51113;53.646;-113.674;2023-04-29T11:37:47;5.95;;;1.10;;
64686;SDS011;51113;53.646;-113.674;2023-04-29T11:40:16;3.03;;;1.00;;
64686;SDS011;51113;53.646;-113.674;2023-04-29T11:42:48;3.97;;;1.00;;
64686;SDS011;51113;53.646;-113.674;2023-04-29T11:45:17;4.57;;;0.95;;
64686;SDS011;51113;53.646;-113.674;2023-04-29T11:47:47;3.70;;;1.10;;
64686;SDS011;51113;53.646;-113.674;2023-04-29T11:50:19;3.93;;;0.90;;
64686;SDS011;51113;53.646;-113.674;2023-04-29T11:52:48;4.80;;;1.10;;
64686;SDS011;51113;53.646;-113.674;2023-04-29T11:55:17;6.68;;;0.90;;
64686;SDS011;51113;53.646;-113.674;2023-04-29T11:57:47;3.45;;;1.10;;
64686;SDS011;51113;53.646;-113.674;2023-04-29T12:00:20;1.73;;;0.95;;
64686;SDS011;51113;53.646;-113.674;2023-04-29T12:02:48;4.65;;;0.90;;
64686;SDS011;51113;53.646;-113.674;2023-04-29T12:05:17;6.47;;;1.17;;
64686;SDS011;51113;53.646;-113.674;2023-04-29T12:07:48;7.25;;;1.10;;
64686;SDS011;51113;53.646;-113.674;2023-04-29T12:10:18;3.03;;;0.90;;
64686;SDS011;51113;53.646;-113.674;2023-04-29T12:12:48;3.15;;;1.10;;
64686;SDS011;51113;53.646;-113.674;2023-04-29T12:15:17;1.30;;;0.80;;
64686;SDS011;51113;53.646;-113.674;2023-04-29T12:17:45;5.88;;;1.02;;
64686;SDS011;51113;53.646;-113.674;2023-04-29T12:20:14;4.22;;;0.90;;
64686;SDS011;51113;53.646;-113.674;2023-04-29T12:22:42;9.10;;;1.20;;
64686;SDS011;51113;53.646;-113.674;2023-04-29T12:25:11;4.40;;;0.93;;
64686;SDS011;51113;53.646;-113.674;2023-04-29T12:27:40;3.35;;;1.00;;
64686;SDS011;51113;53.646;-113.674;2023-04-29T12:30:09;6.22;;;1.10;;
64686;SDS011;51113;53.646;-113.674;2023-04-29T12:32:39;2.95;;;1.13;;
64686;SDS011;51113;53.646;-113.674;2023-04-29T12:35:14;5.20;;;0.98;;
64686;SDS011;51113;53.646;-113.674;2023-04-29T12:37:46;4.03;;;1.08;;
64686;SDS011;51113;53.646;-113.674;2023-04-29T12:40:16;2.38;;;1.00;;
64686;SDS011;51113;53.646;-113.674;2023-04-29T12:42:46;5.88;;;1.10;;
64686;SDS011;51113;53.646;-113.674;2023-04-29T12:45:31;5.05;;;1.17;;
64686;SDS011;51113;53.646;-113.674;2023-04-29T12:48:01;3.75;;;0.88;;
64686;SDS011;51113;53.646;-113.674;2023-04-29T12:50:40;1.95;;;0.90;;
64686;SDS011;51113;53.646;-113.674;2023-04-29T12:53:08;4.07;;;1.08;;
64686;SDS011;51113;53.646;-113.674;2023-04-29T12:55:38;2.58;;;0.90;;
64686;SDS011;51113;53.646;-113.674;2023-04-29T12:58:08;3.42;;;0.90;;
64686;SDS011;51113;53.646;-113.674;2023-04-29T13:00:36;5.07;;;1.20;;
64686;SDS011;51113;53.646;-113.674;2023-04-29T13:03:05;6.05;;;1.10;;
64686;SDS011;51113;53.646;-113.674;2023-04-29T13:05:34;3.90;;;0.90;;
64686;SDS011;51113;53.646;-113.674;2023-04-29T13:08:03;5.20;;;1.00;;
64686;SDS011;51113;53.646;-113.674;2023-04-29T13:10:35;6.47;;;1.23;;
64686;SDS011;51113;53.646;-113.674;2023-04-29T13:13:03;3.08;;;0.95;;
64686;SDS011;51113;53.646;-113.674;2023-04-29T13:15:32;3.63;;;1.20;;
64686;SDS011;51113;53.646;-113.674;2023-04-29T13:18:00;2.97;;;1.10;;
64686;SDS011;51113;53.646;-113.674;2023-04-29T13:20:29;4.13;;;1.00;;
64686;SDS011;51113;53.646;-113.674;2023-04-29T13:23:07;7.68;;;1.20;;
64686;SDS011;51113;53.646;-113.674;2023-04-29T13:25:36;4.75;;;1.45;;
64686;SDS011;51113;53.646;-113.674;2023-04-29T13:28:05;4.72;;;1.30;;
64686;SDS011;51113;53.646;-113.674;2023-04-29T13:30:34;5.60;;;1.20;;
64686;SDS011;51113;53.646;-113.674;2023-04-29T13:33:03;5.28;;;1.05;;
64686;SDS011;51113;53.646;-113.674;2023-04-29T13:35:38;2.35;;;1.20;;
64686;SDS011;51113;53.646;-113.674;2023-04-29T13:38:08;2.63;;;1.00;;
64686;SDS011;51113;53.646;-113.674;2023-04-29T13:40:37;5.57;;;1.02;;
64686;SDS011;51113;53.646;-113.674;2023-04-29T13:43:12;5.60;;;1.30;;
64686;SDS011;51113;53.646;-113.674;2023-04-29T13:45:54;5.63;;;1.23;;
64686;SDS011;51113;53.646;-113.674;2023-04-29T13:48:23;6.32;;;1.20;;
64686;SDS011;51113;53.646;-113.674;2023-04-29T13:51:11;6.00;;;1.55;;
64686;SDS011;51113;53.646;-113.674;2023-04-29T13:53:59;4.50;;;1.10;;
64686;SDS011;51113;53.646;-113.674;2023-04-29T13:56:32;2.42;;;1.10;;
64686;SDS011;51113;53.646;-113.674;2023-04-29T13:59:03;6.28;;;1.17;;
64686;SDS011;51113;53.646;-113.674;2023-04-29T14:01:35;10.82;;;1.20;;
64686;SDS011;51113;53.646;-113.674;2023-04-29T14:04:25;4.57;;;1.27;;
64686;SDS011;51113;53.646;-113.674;2023-04-29T14:06:55;13.18;;;1.38;;
64686;SDS011;51113;53.646;-113.674;2023-04-29T14:09:24;9.07;;;1.20;;
64686;SDS011;51113;53.646;-113.674;2023-04-29T14:11:53;5.15;;;1.40;;
64686;SDS011;51113;53.646;-113.674;2023-04-29T14:14:21;8.40;;;1.10;;
64686;SDS011;51113;53.646;-113.674;2023-04-29T14:16:49;5.05;;;1.30;;
64686;SDS011;51113;53.646;-113.674;2023-04-29T14:19:19;10.40;;;1.30;;
64686;SDS011;51113;53.646;-113.674;2023-04-29T14:21:48;1.67;;;1.00;;
64686;SDS011;51113;53.646;-113.674;2023-04-29T14:24:16;11.45;;;1.40;;
64686;SDS011;51113;53.646;-113.674;2023-04-29T14:26:45;2.67;;;1.08;;
64686;SDS011;51113;53.646;-113.674;2023-04-29T14:29:13;9.82;;;1.20;;
64686;SDS011;51113;53.646;-113.674;2023-04-29T14:31:42;5.25;;;1.35;;
64686;SDS011;51113;53.646;-113.674;2023-04-29T14:34:11;3.67;;;1.15;;
64686;SDS011;51113;53.646;-113.674;2023-04-29T14:36:39;4.32;;;1.13;;
64686;SDS011;51113;53.646;-113.674;2023-04-29T14:39:10;8.77;;;1.30;;
64686;SDS011;51113;53.646;-113.674;2023-04-29T14:41:39;5.13;;;1.00;;
64686;SDS011;51113;53.646;-113.674;2023-04-29T14:44:08;1.45;;;0.90;;
64686;SDS011;51113;53.646;-113.674;2023-04-29T14:46:37;6.95;;;1.08;;